Nearby METAR Reports

 

KDLS - The Dalles, Oregon, USA
Distance from station: NNE 2mi, 3km
Updated: Sat, 17-Apr-2021 10:53pm PDT
Clear
Clear
 Wind from E
Wind: E 6 mph , 9 km/h
Temperature: 54°F , 12°C
Dew Point: 34°F , 1°C
Humidity: 47%
Barometer: 30.16 inHg , 1021.3 hPa
Clouds: Clear
Visibility: 10 miles , 16 km
2021/04/18 05:53 KDLS 180553Z AUTO 09005KT 10SM CLR 12/01 A3016 RMK AO2 SLP214 T01220011 10272 20117 51020
KTTD - Troutdale, Oregon, USA
Distance from station: W 60mi, 96km
Updated: Sat, 17-Apr-2021 10:53pm PDT
Clear
Clear
 Wind from calm
Wind: Calm
Temperature: 61°F , 16°C
Dew Point: 37°F , 3°C
Humidity: 42%
Barometer: 30.15 inHg , 1021 hPa
Clouds: Clear
Visibility: 10 miles , 16 km
2021/04/18 05:53 KTTD 180553Z AUTO 00000KT 10SM CLR 16/03 A3015 RMK AO2 SLP207 T01560033 10283 20139 51021
 
KPDX - Portland, Oregon, USA
Distance from station: W 69mi, 111km
Updated: Sat, 17-Apr-2021 10:53pm PDT
Clear
Clear
 Wind from E
Wind: E 6 mph , 9 km/h
Temperature: 64°F , 18°C
Dew Point: 39°F , 4°C
Humidity: 40%
Barometer: 30.14 inHg , 1020.7 hPa
Clouds: Clear
Visibility: 10 miles , 16 km
2021/04/18 05:53 KPDX 180553Z 08005KT 10SM CLR 18/04 A3014 RMK AO2 SLP205 T01780044 10289 20167 51018
KVUO - Vancouver, Washington, USA
Distance from station: W 71mi, 114km
Updated: Sat, 17-Apr-2021 10:53pm PDT
Clear
Clear
 Wind from calm
Wind: Calm
Temperature: 61°F , 16°C
Dew Point: 36°F , 2°C
Humidity: 39%
Barometer: 30.13 inHg , 1020.3 hPa
Clouds: Clear
Visibility: 10 miles , 16 km
2021/04/18 05:53 KVUO 180553Z AUTO 00000KT 10SM CLR 16/02 A3013 RMK AO2 SLP203 T01610017 10278 20156 51018
 
KYKM - Yakima, Washington, USA
Distance from station: NNE 74mi, 120km
Updated: Sat, 17-Apr-2021 10:53pm PDT
Clear
Clear
 Wind from W
Wind: W 6 mph , 9 km/h
Temperature: 48°F , 9°C
Wind Chill: 45°F , 7°C
Dew Point: 28°F , -2°C
Humidity: 46%
Barometer: 30.18 inHg , 1022 hPa
Clouds: Clear
Visibility: 10 miles , 16 km
2021/04/18 05:53 KYKM 180553Z 26005KT 10SM CLR 09/M02 A3018 RMK AO2 SLP218 T00891017 10256 20089 51014
KUAO - Aurora, Oregon, USA
Distance from station: WSW 80mi, 129km
Updated: Sat, 17-Apr-2021 10:53pm PDT
Clear
Clear
 Wind from NNW
Wind: NNW 8 mph , 13 km/h
Temperature: 66°F , 19°C
Dew Point: 36°F , 2°C
Humidity: 32%
Barometer: 30.14 inHg , 1020.7 hPa
Clouds: Clear
Visibility: 10 miles , 16 km
2021/04/18 05:53 KUAO 180553Z AUTO 34007KT 10SM CLR 19/02 A3014 RMK AO2 SLP203 T01940022 10283 20167 51013
 
KSPB - Scappoose, Oregon, USA
Distance from station: W 82mi, 132km
Updated: Sat, 17-Apr-2021 10:53pm PDT
Clear
Clear
 Wind from W
Wind: W 3 mph , 6 km/h
Temperature: 57°F , 14°C
Dew Point: 37°F , 3°C
Humidity: 48%
Barometer: 30.13 inHg , 1020.3 hPa
Clouds: Clear
Visibility: 10 miles , 16 km
2021/04/18 05:53 KSPB 180553Z AUTO 26003KT 10SM CLR 14/03 A3013 RMK AO2 SLP202 T01440033 10289 20139 51017
KHIO - Hillsboro/Portld, Oregon, USA
Distance from station: W 85mi, 137km
Updated: Sat, 17-Apr-2021 10:53pm PDT
Clear
Clear
 Wind from calm
Wind: Calm
Temperature: 55°F , 13°C
Dew Point: 39°F , 4°C
Humidity: 55%
Barometer: 30.13 inHg , 1020.3 hPa
Clouds: Clear
Visibility: 10 miles , 16 km
2021/04/18 05:53 KHIO 180553Z AUTO 00000KT 10SM CLR 13/04 A3013 RMK AO2 SLP202 60000 T01330044 10283 20122 51015
 
KKLS - Kelso Longveiw, Washington, USA
Distance from station: WNW 90mi, 145km
Updated: Sat, 17-Apr-2021 10:56pm PDT
Clear
Clear
 Wind from calm
Wind: Calm
Temperature: 57°F , 14°C
Dew Point: 39°F , 4°C
Humidity: 51%
Barometer: 30.16 inHg , 1021.3 hPa
Clouds: Clear
Visibility: 10 miles , 16 km
2021/04/18 05:56 KKLS 180556Z AUTO 00000KT 10SM CLR 14/04 A3016 RMK AO2 SLP216 T01440039 10289 20144 51017
KRDM - Redmond, Oregon, USA
Distance from station: S 93mi, 149km
Updated: Sat, 17-Apr-2021 10:56pm PDT
Clear
Clear
 Wind from WSW
Wind: WSW 3 mph , 6 km/h
Temperature: 52°F , 11°C
Dew Point: 25°F , -4°C
Humidity: 35%
Barometer: 30.23 inHg , 1023.7 hPa
Clouds: Clear
Visibility: 10 miles , 16 km
2021/04/18 05:56 KRDM 180556Z AUTO 24003KT 10SM CLR 11/M04 A3023 RMK AO2 SLP227 T01111044 10239 20078 51017
 
KHRI - Hermiston, Oregon, USA
Distance from station: E 94mi, 151km
Updated: Sat, 17-Apr-2021 10:53pm PDT
Clear
Clear
 Wind from S
Wind: S 5 mph , 7 km/h
Temperature: 52°F , 11°C
Dew Point: 34°F , 1°C
Humidity: 50%
Barometer: 30.16 inHg , 1021.3 hPa
Clouds: Clear
Visibility: 10 miles , 16 km
2021/04/18 05:53 KHRI 180553Z AUTO 17004KT 10SM CLR 11/01 A3016 RMK AO2 SLP211 T01060006 10267 20106 51007 $
KMMV - Mcminnville, Oregon, USA
Distance from station: WSW 98mi, 158km
Updated: Sat, 17-Apr-2021 10:53pm PDT
Clear
Clear
 Wind from W
Wind: W 7 mph , 11 km/h
Temperature: 55°F , 13°C
Dew Point: 37°F , 3°C
Humidity: 51%
Barometer: 30.13 inHg , 1020.3 hPa
Clouds: Clear
Visibility: 10 miles , 16 km
2021/04/18 05:53 KMMV 180553Z AUTO 27006KT 10SM CLR 13/03 A3013 RMK AO2 SLP200 T01330028 10289 20111 51014
 
KSLE - Salem, Oregon, USA
Distance from station: WSW 100mi, 161km
Updated: Sat, 17-Apr-2021 10:56pm PDT
Clear
Clear
 Wind from E
Wind: E 3 mph , 6 km/h
Temperature: 61°F , 16°C
Dew Point: 34°F , 1°C
Humidity: 36%
Barometer: 30.13 inHg , 1020.3 hPa
Clouds: Clear
Visibility: 10 miles , 16 km
2021/04/18 05:56 KSLE 180556Z AUTO 10003KT 10SM CLR 16/01 A3013 RMK AO2 SLP200 T01560011 10294 20156 51015
KBDN - Bend, Oregon, USA
Distance from station: S 103mi, 166km
Updated: Sat, 17-Apr-2021 11:15pm PDT
Clear
Clear
 Wind from calm
Wind: Calm
Temperature: 48°F , 9°C
Dew Point: 23°F , -5°C
Humidity: 37%
Barometer: 30.26 inHg , 1024.7 hPa
Clouds: Clear
Visibility: 10 miles , 16 km
2021/04/18 06:15 KBDN 180615Z AUTO 00000KT 10SM CLR 09/M05 A3026 RMK AO2
 
KELN - Ellensburg, Washington, USA
Distance from station: NNE 104mi, 168km
Updated: Sat, 17-Apr-2021 10:53pm PDT
Clear
Clear
 Wind from W
Wind: W 3 mph , 6 km/h
Temperature: 54°F , 12°C
Dew Point: 27°F , -3°C
Humidity: 35%
Barometer: 30.19 inHg , 1022.4 hPa
Clouds: Clear
Visibility: 10 miles , 16 km
2021/04/18 05:53 KELN 180553Z AUTO 28003KT 10SM CLR 12/M03 A3019 RMK AO2 SLP221 T01221028 10256 20094 51012
KPSC - Pasco, Washington, USA
Distance from station: ENE 110mi, 177km
Updated: Sat, 17-Apr-2021 10:53pm PDT
Clear
Clear
 Wind from calm
Wind: Calm
Temperature: 54°F , 12°C
Dew Point: 36°F , 2°C
Humidity: 51%
Barometer: 30.15 inHg , 1021 hPa
Clouds: Clear
Visibility: 10 miles , 16 km
2021/04/18 05:53 KPSC 180553Z AUTO 00000KT 10SM CLR 12/02 A3015 RMK AO2 SLP207 T01170017 10267 20078 51005
 
KPDT - Pendleton, Oregon, USA
Distance from station: E 114mi, 183km
Updated: Sat, 17-Apr-2021 10:53pm PDT
Clear
Clear
 Wind from SE
Wind: SE 10 mph , 17 km/h
Temperature: 52°F , 11°C
Dew Point: 34°F , 1°C
Humidity: 50%
Barometer: 30.18 inHg , 1022 hPa
Clouds: Clear
Visibility: 10 miles , 16 km
2021/04/18 05:53 KPDT 180553Z AUTO 13009KT 10SM CLR 11/01 A3018 RMK AO2 SLP213 T01060011 10244 20100 50006
KCLS - Chehalis Central, Washington, USA
Distance from station: NW 115mi, 184km
Updated: Sat, 17-Apr-2021 11:15pm PDT
Clear
Clear
 Wind from calm
Wind: Calm
Temperature: 52°F , 11°C
Dew Point: 46°F , 8°C
Humidity: 82%
Barometer: 30.16 inHg , 1021.3 hPa
Clouds: Clear
Visibility: 10 miles , 16 km
2021/04/18 06:15 KCLS 180615Z AUTO 00000KT 10SM CLR 11/08 A3016 RMK AO2
 
KPLU - Puyallup/Thun, Washington, USA
Distance from station: NNW 117mi, 188km
Updated: Sat, 17-Apr-2021 10:55pm PDT
Clear
Clear
 Wind from calm
Wind: Calm
Temperature: 54°F , 12°C
Dew Point: 39°F , 4°C
Humidity: 58%
Barometer: 30.17 inHg , 1021.7 hPa
Clouds: Clear
Visibility: 10 miles , 16 km
2021/04/18 05:55 KPLU 180555Z AUTO 00000KT 10SM CLR 12/04 A3017 RMK AO2
KCVO - Corvallis Muni A, Oregon, USA
Distance from station: WNW 167mi, 269km
Updated: Sat, 17-Apr-2021 10:56pm PDT
Clear
Clear
 Wind from WNW
Wind: WNW 8 mph , 13 km/h
Temperature: 59°F , 15°C
Dew Point: 39°F , 4°C
Humidity: 48%
Barometer: 30.14 inHg , 1020.7 hPa
Clouds: Clear
Visibility: 10 miles , 16 km
2021/04/18 05:56 KCVO 180556Z AUTO 29007KT 10SM CLR 15/04 A3014 RMK AO2 SLP205 T01500039 10283 20150 51013
 
KEUG - Eugene, Oregon, USA
Distance from station: W 193mi, 310km
Updated: Sat, 17-Apr-2021 10:54pm PDT
Clear
Clear
 Wind from S
Wind: S 5 mph , 7 km/h
Temperature: 61°F , 16°C
Dew Point: 41°F , 5°C
Humidity: 48%
Barometer: 30.14 inHg , 1020.7 hPa
Clouds: Clear
Visibility: 10 miles , 16 km
2021/04/18 05:54 KEUG 180554Z 19004KT 10SM CLR 16/05 A3014 RMK AO2 SLP206 T01560050 10272 20122 51018
KRBG - Roseburg, Oregon, USA
Distance from station: WSW 196mi, 315km
Updated: Sat, 17-Apr-2021 10:53pm PDT
Clear
Clear
 Wind from calm
Wind: Calm
Temperature: 63°F , 17°C
Dew Point: 34°F , 1°C
Humidity: 34%
Barometer: 30.14 inHg , 1020.7 hPa
Clouds: Clear
Visibility: 10 miles , 16 km
2021/04/18 05:53 KRBG 180553Z AUTO 00000KT 10SM CLR 17/01 A3014 RMK AO2 SLP204 T01670011 10289 20167 51024
 
KLKV - Lakeview, Oregon, USA
Distance from station: SSE 239mi, 385km
Updated: Sat, 17-Apr-2021 10:53pm PDT
Clear
Clear
 Wind from NNW
Wind: NNW 12 mph , 19 km/h
Temperature: 39°F , 4°C
Wind Chill: 32°F , 0°C
Dew Point: 19°F , -7°C
Humidity: 45%
Barometer: 30.27 inHg , 1025.1 hPa
Clouds: Clear
Visibility: 10 miles , 16 km
2021/04/18 05:53 KLKV 180553Z AUTO 34010KT 10SM CLR 04/M07 A3027 RMK AO2 SLP248 T00391067 10200 20028 51013
KMFR - Medford, Oregon, USA
Distance from station: WSW 241mi, 388km
Updated: Sat, 17-Apr-2021 10:53pm PDT
Clear
Clear
 Wind from calm
Wind: Calm
Temperature: 61°F , 16°C
Dew Point: 32°F , 0°C
Humidity: 34%
Barometer: 30.14 inHg , 1020.7 hPa
Clouds: Clear
Visibility: 10 miles , 16 km
2021/04/18 05:53 KMFR 180553Z AUTO 00000KT 10SM CLR 16/00 A3014 RMK AO2 SLP202 T01610000 10278 20156 51023
 
KBNO - Burns, Oregon, USA
Distance from station: ESE 249mi, 280km
Updated: Sat, 17-Apr-2021 10:53pm PDT
Clear
Clear
 Wind from WNW
Wind: WNW 8 mph , 13 km/h
Temperature: 37°F , 3°C
Wind Chill: 31°F , -1°C
Dew Point: 21°F , -6°C
Humidity: 52%
Barometer: 30.27 inHg , 1025.1 hPa
Clouds: Clear
Visibility: 10 miles , 16 km
2021/04/18 05:53 KBNO 180553Z AUTO 30007KT 10SM CLR 03/M06 A3027 RMK AO2 SLP245 T00331056 10194 20017 51015
KLMT - Klamath Falls, Oregon, USA
Distance from station: SSW 266mi, 428km
Updated: Sat, 17-Apr-2021 10:53pm PDT
Clear
Clear
 Wind from calm
Wind: Calm
Temperature: 37°F , 3°C
Dew Point: 21°F , -6°C
Humidity: 52%
Barometer: 30.24 inHg , 1024 hPa
Clouds: Clear
Visibility: 10 miles , 16 km
2021/04/18 05:53 KLMT 180553Z AUTO 00000KT 10SM CLR 03/M06 A3024 RMK AO2 SLP230 T00281061 10206 20017 51013
//